sensor_id;sensor_type;location;lat;lon;timestamp;pressure;altitude;pressure_sealevel;temperature;humidity
70925;BME280;58577;52.410;13.242;2022-07-21T00:01:15;101020.91;;;22.40;55.72
70925;BME280;58577;52.410;13.242;2022-07-21T00:03:41;101018.16;;;22.40;54.78
70925;BME280;58577;52.410;13.242;2022-07-21T00:06:07;101025.13;;;22.36;54.67
70925;BME280;58577;52.410;13.242;2022-07-21T00:08:32;101021.09;;;22.38;55.09
70925;BME280;58577;52.410;13.242;2022-07-21T00:10:58;101023.88;;;22.32;53.33
70925;BME280;58577;52.410;13.242;2022-07-21T00:13:24;101022.19;;;22.37;54.19
70925;BME280;58577;52.410;13.242;2022-07-21T00:15:49;101008.94;;;22.34;54.66
70925;BME280;58577;52.410;13.242;2022-07-21T00:18:16;101005.56;;;22.39;53.86
70925;BME280;58577;52.410;13.242;2022-07-21T00:20:42;100998.06;;;22.28;54.53
70925;BME280;58577;52.410;13.242;2022-07-21T00:23:07;100991.13;;;22.18;54.80
70925;BME280;58577;52.410;13.242;2022-07-21T00:25:33;101007.72;;;22.17;52.26
70925;BME280;58577;52.410;13.242;2022-07-21T00:27:59;101002.28;;;22.17;52.50
70925;BME280;58577;52.410;13.242;2022-07-21T00:30:24;100990.28;;;22.25;55.10
70925;BME280;58577;52.410;13.242;2022-07-21T00:32:50;100984.63;;;22.13;55.51
70925;BME280;58577;52.410;13.242;2022-07-21T00:35:15;100983.59;;;22.07;56.57
70925;BME280;58577;52.410;13.242;2022-07-21T00:37:41;100981.06;;;22.12;56.79
70925;BME280;58577;52.410;13.242;2022-07-21T00:40:08;100996.22;;;22.08;54.71
70925;BME280;58577;52.410;13.242;2022-07-21T00:42:35;100990.31;;;22.11;56.26
70925;BME280;58577;52.410;13.242;2022-07-21T00:45:02;100992.25;;;22.04;56.34
70925;BME280;58577;52.410;13.242;2022-07-21T00:47:29;101002.56;;;22.02;54.27
70925;BME280;58577;52.410;13.242;2022-07-21T00:49:56;101004.22;;;22.03;53.94
70925;BME280;58577;52.410;13.242;2022-07-21T00:52:22;101004.44;;;22.08;53.40
70925;BME280;58577;52.410;13.242;2022-07-21T00:54:48;100986.75;;;22.11;55.12
70925;BME280;58577;52.410;13.242;2022-07-21T00:57:14;100989.28;;;22.12;54.93
70925;BME280;58577;52.410;13.242;2022-07-21T00:59:42;100994.94;;;22.11;54.65
70925;BME280;58577;52.410;13.242;2022-07-21T01:02:08;100998.16;;;22.01;54.10
70925;BME280;58577;52.410;13.242;2022-07-21T01:04:34;100999.44;;;21.98;54.95
70925;BME280;58577;52.410;13.242;2022-07-21T01:07:00;101001.75;;;21.95;54.62
70925;BME280;58577;52.410;13.242;2022-07-21T01:09:26;100983.44;;;22.02;56.28
70925;BME280;58577;52.410;13.242;2022-07-21T01:11:52;100982.00;;;21.93;56.19
70925;BME280;58577;52.410;13.242;2022-07-21T01:14:18;100999.44;;;21.92;54.69
70925;BME280;58577;52.410;13.242;2022-07-21T01:16:43;100975.50;;;21.87;56.50
70925;BME280;58577;52.410;13.242;2022-07-21T01:19:09;100975.59;;;22.12;56.68
70925;BME280;58577;52.410;13.242;2022-07-21T01:21:37;100972.56;;;21.89;55.87
70925;BME280;58577;52.410;13.242;2022-07-21T01:24:04;100976.75;;;21.91;55.68
70925;BME280;58577;52.410;13.242;2022-07-21T01:26:38;100984.94;;;21.91;54.61
70925;BME280;58577;52.410;13.242;2022-07-21T01:29:04;100979.69;;;21.90;55.31
70925;BME280;58577;52.410;13.242;2022-07-21T01:31:30;100982.84;;;21.93;54.56
70925;BME280;58577;52.410;13.242;2022-07-21T01:33:56;100980.72;;;21.95;54.01
70925;BME280;58577;52.410;13.242;2022-07-21T01:36:21;100976.47;;;22.06;54.08
70925;BME280;58577;52.410;13.242;2022-07-21T01:38:47;100966.72;;;22.24;55.52
70925;BME280;58577;52.410;13.242;2022-07-21T01:41:31;100966.53;;;22.25;54.56
70925;BME280;58577;52.410;13.242;2022-07-21T01:44:08;100958.22;;;22.00;54.43
70925;BME280;58577;52.410;13.242;2022-07-21T01:46:36;100967.72;;;21.91;53.33
70925;BME280;58577;52.410;13.242;2022-07-21T01:49:03;100967.28;;;21.94;53.80
70925;BME280;58577;52.410;13.242;2022-07-21T01:51:28;100975.91;;;21.91;53.40
70925;BME280;58577;52.410;13.242;2022-07-21T01:53:54;100967.72;;;21.91;53.80
70925;BME280;58577;52.410;13.242;2022-07-21T01:56:22;100958.66;;;21.90;55.14
70925;BME280;58577;52.410;13.242;2022-07-21T01:58:49;100958.72;;;21.84;55.16
70925;BME280;58577;52.410;13.242;2022-07-21T02:01:16;100959.84;;;21.63;54.08
70925;BME280;58577;52.410;13.242;2022-07-21T02:03:43;100955.25;;;21.56;55.29
70925;BME280;58577;52.410;13.242;2022-07-21T02:06:09;100955.91;;;21.52;54.22
70925;BME280;58577;52.410;13.242;2022-07-21T02:08:35;100961.75;;;21.55;55.11
70925;BME280;58577;52.410;13.242;2022-07-21T02:11:00;100964.25;;;21.57;55.47
70925;BME280;58577;52.410;13.242;2022-07-21T02:13:26;100976.88;;;21.51;54.59
70925;BME280;58577;52.410;13.242;2022-07-21T02:15:52;100974.34;;;21.50;55.30
70925;BME280;58577;52.410;13.242;2022-07-21T02:18:18;100967.03;;;21.44;55.35
70925;BME280;58577;52.410;13.242;2022-07-21T02:20:44;100954.41;;;21.43;56.78
70925;BME280;58577;52.410;13.242;2022-07-21T02:23:14;100963.00;;;21.53;55.43
70925;BME280;58577;52.410;13.242;2022-07-21T02:25:39;100963.63;;;21.41;56.68
70925;BME280;58577;52.410;13.242;2022-07-21T02:28:05;100971.44;;;21.31;55.96
70925;BME280;58577;52.410;13.242;2022-07-21T02:30:30;100952.31;;;21.31;57.75
70925;BME280;58577;52.410;13.242;2022-07-21T02:32:56;100958.19;;;21.28;58.01
70925;BME280;58577;52.410;13.242;2022-07-21T02:35:22;100967.22;;;21.49;55.79
70925;BME280;58577;52.410;13.242;2022-07-21T02:37:47;100945.81;;;21.39;56.66
70925;BME280;58577;52.410;13.242;2022-07-21T02:40:13;100969.31;;;21.33;55.59
70925;BME280;58577;52.410;13.242;2022-07-21T02:42:38;100952.94;;;21.33;56.79
70925;BME280;58577;52.410;13.242;2022-07-21T02:45:08;100950.19;;;21.40;56.50
70925;BME280;58577;52.410;13.242;2022-07-21T02:47:50;100950.47;;;21.25;55.29
70925;BME280;58577;52.410;13.242;2022-07-21T02:50:16;100945.81;;;21.39;56.12
70925;BME280;58577;52.410;13.242;2022-07-21T02:52:42;100943.09;;;21.26;56.32
70925;BME280;58577;52.410;13.242;2022-07-21T02:55:08;100931.13;;;21.47;56.17
70925;BME280;58577;52.410;13.242;2022-07-21T02:57:34;100924.59;;;21.48;55.79
70925;BME280;58577;52.410;13.242;2022-07-21T03:00:00;100937.41;;;21.34;54.94
70925;BME280;58577;52.410;13.242;2022-07-21T03:02:25;100960.91;;;21.41;53.15
70925;BME280;58577;52.410;13.242;2022-07-21T03:04:51;100935.00;;;21.71;54.97
70925;BME280;58577;52.410;13.242;2022-07-21T03:07:16;100953.97;;;21.59;54.06
70925;BME280;58577;52.410;13.242;2022-07-21T03:09:42;100958.38;;;21.60;54.04
70925;BME280;58577;52.410;13.242;2022-07-21T03:12:08;100962.09;;;21.72;53.80
70925;BME280;58577;52.410;13.242;2022-07-21T03:14:33;100972.22;;;21.65;53.56
70925;BME280;58577;52.410;13.242;2022-07-21T03:16:59;100988.16;;;21.68;53.22
70925;BME280;58577;52.410;13.242;2022-07-21T03:19:26;100990.50;;;21.65;52.14
70925;BME280;58577;52.410;13.242;2022-07-21T03:21:51;100993.84;;;21.67;51.99
70925;BME280;58577;52.410;13.242;2022-07-21T03:24:17;100981.06;;;21.67;52.89
70925;BME280;58577;52.410;13.242;2022-07-21T03:26:43;100975.19;;;21.64;54.03
70925;BME280;58577;52.410;13.242;2022-07-21T03:29:08;100966.09;;;21.76;54.21
70925;BME280;58577;52.410;13.242;2022-07-21T03:31:35;100986.09;;;21.64;51.55
70925;BME280;58577;52.410;13.242;2022-07-21T03:34:01;100986.50;;;21.60;52.56
70925;BME280;58577;52.410;13.242;2022-07-21T03:36:26;100997.66;;;21.66;52.48
70925;BME280;58577;52.410;13.242;2022-07-21T03:38:52;100986.28;;;21.69;52.68
70925;BME280;58577;52.410;13.242;2022-07-21T03:41:18;100973.28;;;21.57;54.43
70925;BME280;58577;52.410;13.242;2022-07-21T03:43:43;100976.66;;;21.53;54.60
70925;BME280;58577;52.410;13.242;2022-07-21T03:46:09;100977.06;;;21.50;54.82
70925;BME280;58577;52.410;13.242;2022-07-21T03:48:35;100963.44;;;21.43;56.17
70925;BME280;58577;52.410;13.242;2022-07-21T03:51:00;100970.16;;;21.40;56.04
70925;BME280;58577;52.410;13.242;2022-07-21T03:53:26;100986.13;;;21.30;54.07
70925;BME280;58577;52.410;13.242;2022-07-21T03:55:51;100979.00;;;21.29;56.03
70925;BME280;58577;52.410;13.242;2022-07-21T03:58:17;101005.84;;;21.32;54.59
70925;BME280;58577;52.410;13.242;2022-07-21T04:00:44;101005.41;;;21.42;53.58
70925;BME280;58577;52.410;13.242;2022-07-21T04:03:11;101004.63;;;21.48;54.47
70925;BME280;58577;52.410;13.242;2022-07-21T04:05:38;101019.72;;;21.51;53.57
70925;BME280;58577;52.410;13.242;2022-07-21T04:08:05;101011.91;;;21.61;53.05
70925;BME280;58577;52.410;13.242;2022-07-21T04:10:32;101008.34;;;21.67;54.07
70925;BME280;58577;52.410;13.242;2022-07-21T04:13:00;101022.63;;;21.69;52.75
70925;BME280;58577;52.410;13.242;2022-07-21T04:15:26;101031.63;;;21.76;52.41
70925;BME280;58577;52.410;13.242;2022-07-21T04:17:52;101029.72;;;21.84;52.00
70925;BME280;58577;52.410;13.242;2022-07-21T04:20:18;101029.28;;;21.93;51.45
70925;BME280;58577;52.410;13.242;2022-07-21T04:22:45;101039.94;;;22.02;51.45
70925;BME280;58577;52.410;13.242;2022-07-21T04:25:12;101040.78;;;22.09;51.30
70925;BME280;58577;52.410;13.242;2022-07-21T04:27:38;101046.19;;;22.15;51.55
70925;BME280;58577;52.410;13.242;2022-07-21T04:30:06;101066.38;;;22.28;50.66
70925;BME280;58577;52.410;13.242;2022-07-21T04:32:32;101072.06;;;22.33;50.77
70925;BME280;58577;52.410;13.242;2022-07-21T04:34:57;101070.91;;;22.47;50.50
70925;BME280;58577;52.410;13.242;2022-07-21T04:37:23;101063.75;;;22.53;49.98
70925;BME280;58577;52.410;13.242;2022-07-21T04:39:49;101060.13;;;22.59;50.18
70925;BME280;58577;52.410;13.242;2022-07-21T04:42:15;101066.00;;;22.63;50.41
70925;BME280;58577;52.410;13.242;2022-07-21T04:44:40;101076.09;;;22.62;50.55
70925;BME280;58577;52.410;13.242;2022-07-21T04:47:06;101070.84;;;22.61;50.93
70925;BME280;58577;52.410;13.242;2022-07-21T04:49:31;101074.19;;;22.63;51.81
70925;BME280;58577;52.410;13.242;2022-07-21T04:51:57;101077.78;;;22.63;51.69
70925;BME280;58577;52.410;13.242;2022-07-21T04:54:23;101070.66;;;22.55;52.86
70925;BME280;58577;52.410;13.242;2022-07-21T04:56:48;101080.97;;;22.53;52.68
70925;BME280;58577;52.410;13.242;2022-07-21T04:59:14;101079.53;;;22.51;53.64
70925;BME280;58577;52.410;13.242;2022-07-21T05:01:39;101101.81;;;22.54;52.86
70925;BME280;58577;52.410;13.242;2022-07-21T05:04:06;101101.56;;;22.63;53.40
70925;BME280;58577;52.410;13.242;2022-07-21T05:06:32;101110.56;;;22.70;54.16
70925;BME280;58577;52.410;13.242;2022-07-21T05:08:58;101110.91;;;22.80;54.62
70925;BME280;58577;52.410;13.242;2022-07-21T05:11:24;101117.63;;;22.84;53.43
70925;BME280;58577;52.410;13.242;2022-07-21T05:13:50;101112.75;;;22.93;53.76
70925;BME280;58577;52.410;13.242;2022-07-21T05:16:16;101129.72;;;23.02;52.68
70925;BME280;58577;52.410;13.242;2022-07-21T05:18:41;101127.22;;;23.07;52.78
70925;BME280;58577;52.410;13.242;2022-07-21T05:21:07;101123.44;;;23.01;53.45
70925;BME280;58577;52.410;13.242;2022-07-21T05:23:32;101123.00;;;23.04;53.43
70925;BME280;58577;52.410;13.242;2022-07-21T05:25:58;101128.06;;;23.01;52.89
70925;BME280;58577;52.410;13.242;2022-07-21T05:28:23;101130.38;;;23.04;53.70
70925;BME280;58577;52.410;13.242;2022-07-21T05:30:49;101146.09;;;23.15;53.98
70925;BME280;58577;52.410;13.242;2022-07-21T05:33:14;101155.09;;;23.79;52.10
70925;BME280;58577;52.410;13.242;2022-07-21T05:35:40;101152.31;;;23.86;51.62
70925;BME280;58577;52.410;13.242;2022-07-21T05:38:06;101157.91;;;23.66;51.72
70925;BME280;58577;52.410;13.242;2022-07-21T05:40:32;101152.28;;;23.35;52.63
70925;BME280;58577;52.410;13.242;2022-07-21T05:42:57;101161.13;;;23.38;52.98
70925;BME280;58577;52.410;13.242;2022-07-21T05:45:23;101164.28;;;23.34;52.59
70925;BME280;58577;52.410;13.242;2022-07-21T05:47:48;101157.38;;;23.25;52.73
70925;BME280;58577;52.410;13.242;2022-07-21T05:50:14;101159.91;;;23.27;52.89
70925;BME280;58577;52.410;13.242;2022-07-21T05:52:40;101164.56;;;23.26;52.60
70925;BME280;58577;52.410;13.242;2022-07-21T05:55:06;101163.13;;;23.24;53.16
70925;BME280;58577;52.410;13.242;2022-07-21T05:57:33;101178.53;;;23.11;52.81
70925;BME280;58577;52.410;13.242;2022-07-21T05:59:58;101174.97;;;23.11;52.21
70925;BME280;58577;52.410;13.242;2022-07-21T06:02:25;101178.53;;;23.18;52.58
70925;BME280;58577;52.410;13.242;2022-07-21T06:04:51;101178.94;;;23.72;51.14
70925;BME280;58577;52.410;13.242;2022-07-21T06:07:16;101160.53;;;23.86;50.81
70925;BME280;58577;52.410;13.242;2022-07-21T06:09:42;101168.25;;;23.64;50.91
70925;BME280;58577;52.410;13.242;2022-07-21T06:12:08;101159.66;;;23.60;51.41
70925;BME280;58577;52.410;13.242;2022-07-21T06:14:33;101154.41;;;23.59;51.68
70925;BME280;58577;52.410;13.242;2022-07-21T06:16:59;101164.09;;;23.61;52.43
70925;BME280;58577;52.410;13.242;2022-07-21T06:19:26;101186.81;;;23.62;51.38
70925;BME280;58577;52.410;13.242;2022-07-21T06:21:51;101192.78;;;23.59;50.60
70925;BME280;58577;52.410;13.242;2022-07-21T06:24:17;101176.59;;;23.50;51.37
70925;BME280;58577;52.410;13.242;2022-07-21T06:26:45;101181.31;;;23.36;51.98
70925;BME280;58577;52.410;13.242;2022-07-21T06:29:10;101180.00;;;23.46;51.86
70925;BME280;58577;52.410;13.242;2022-07-21T06:31:36;101180.63;;;23.48;52.50
70925;BME280;58577;52.410;13.242;2022-07-21T06:34:02;101189.84;;;24.47;50.75
70925;BME280;58577;52.410;13.242;2022-07-21T06:36:28;101209.59;;;25.54;47.67
70925;BME280;58577;52.410;13.242;2022-07-21T06:38:53;101202.22;;;25.36;47.98
70925;BME280;58577;52.410;13.242;2022-07-21T06:41:19;101231.47;;;25.84;46.06
70925;BME280;58577;52.410;13.242;2022-07-21T06:43:44;101235.94;;;26.56;43.50
70925;BME280;58577;52.410;13.242;2022-07-21T06:46:10;101240.69;;;27.87;41.73
70925;BME280;58577;52.410;13.242;2022-07-21T06:48:35;101247.66;;;29.07;39.30
70925;BME280;58577;52.410;13.242;2022-07-21T06:51:01;101239.16;;;29.63;37.76
70925;BME280;58577;52.410;13.242;2022-07-21T06:53:27;101241.13;;;30.32;37.03
70925;BME280;58577;52.410;13.242;2022-07-21T06:55:53;101235.34;;;30.38;36.51
70925;BME280;58577;52.410;13.242;2022-07-21T06:58:22;101233.50;;;30.17;36.18
70925;BME280;58577;52.410;13.242;2022-07-21T07:00:48;101219.22;;;30.83;36.30
70925;BME280;58577;52.410;13.242;2022-07-21T07:03:16;101219.31;;;31.09;36.32
70925;BME280;58577;52.410;13.242;2022-07-21T07:05:42;101234.09;;;31.97;33.98
70925;BME280;58577;52.410;13.242;2022-07-21T07:08:09;101232.47;;;31.54;34.64
70925;BME280;58577;52.410;13.242;2022-07-21T07:10:34;101223.56;;;31.68;34.59
70925;BME280;58577;52.410;13.242;2022-07-21T07:13:00;101221.34;;;32.21;33.26
70925;BME280;58577;52.410;13.242;2022-07-21T07:15:27;101230.13;;;32.49;33.30
70925;BME280;58577;52.410;13.242;2022-07-21T07:17:54;101249.00;;;32.67;32.21
70925;BME280;58577;52.410;13.242;2022-07-21T07:20:19;101248.19;;;32.67;33.03
70925;BME280;58577;52.410;13.242;2022-07-21T07:22:46;101236.59;;;32.34;34.44
70925;BME280;58577;52.410;13.242;2022-07-21T07:25:12;101245.47;;;32.26;33.51
70925;BME280;58577;52.410;13.242;2022-07-21T07:27:37;101237.19;;;32.10;34.02
70925;BME280;58577;52.410;13.242;2022-07-21T07:30:04;101250.69;;;32.48;33.59
70925;BME280;58577;52.410;13.242;2022-07-21T07:32:32;101249.41;;;32.09;33.79
70925;BME280;58577;52.410;13.242;2022-07-21T07:34:58;101255.69;;;32.56;33.83
70925;BME280;58577;52.410;13.242;2022-07-21T07:37:24;101264.06;;;32.30;33.57
70925;BME280;58577;52.410;13.242;2022-07-21T07:39:49;101270.91;;;32.74;32.69
70925;BME280;58577;52.410;13.242;2022-07-21T07:42:15;101269.00;;;33.29;32.69
70925;BME280;58577;52.410;13.242;2022-07-21T07:44:40;101279.44;;;33.93;31.73
70925;BME280;58577;52.410;13.242;2022-07-21T07:47:06;101267.13;;;33.15;31.97
70925;BME280;58577;52.410;13.242;2022-07-21T07:49:32;101251.03;;;32.16;33.98
70925;BME280;58577;52.410;13.242;2022-07-21T07:51:58;101248.84;;;30.83;36.56
70925;BME280;58577;52.410;13.242;2022-07-21T07:54:24;101247.41;;;29.57;38.72
70925;BME280;58577;52.410;13.242;2022-07-21T07:56:50;101247.91;;;29.05;39.84
70925;BME280;58577;52.410;13.242;2022-07-21T07:59:15;101253.66;;;28.76;41.04
70925;BME280;58577;52.410;13.242;2022-07-21T08:01:41;101257.84;;;28.23;42.17
70925;BME280;58577;52.410;13.242;2022-07-21T08:04:07;101253.69;;;28.03;42.58
70925;BME280;58577;52.410;13.242;2022-07-21T08:06:33;101249.44;;;28.13;42.66
70925;BME280;58577;52.410;13.242;2022-07-21T08:08:58;101253.81;;;28.31;41.48
70925;BME280;58577;52.410;13.242;2022-07-21T08:11:24;101240.75;;;28.60;41.27
70925;BME280;58577;52.410;13.242;2022-07-21T08:13:50;101242.81;;;28.92;39.97
70925;BME280;58577;52.410;13.242;2022-07-21T08:16:16;101260.97;;;30.29;39.18
70925;BME280;58577;52.410;13.242;2022-07-21T08:32:29;101280.50;;;32.01;34.49
70925;BME280;58577;52.410;13.242;2022-07-21T09:39:45;101268.22;;;32.38;32.74
70925;BME280;58577;52.410;13.242;2022-07-21T10:01:24;101274.94;;;30.39;35.47
70925;BME280;58577;52.410;13.242;2022-07-21T10:12:43;101277.91;;;29.68;37.22
70925;BME280;58577;52.410;13.242;2022-07-21T11:25:36;101312.38;;;30.52;40.53
70925;BME280;58577;52.410;13.242;2022-07-21T11:33:01;101316.38;;;29.69;39.33
70925;BME280;58577;52.410;13.242;2022-07-21T11:35:45;101333.56;;;29.49;39.99
70925;BME280;58577;52.410;13.242;2022-07-21T12:31:23;101328.03;;;24.46;65.89
70925;BME280;58577;52.410;13.242;2022-07-21T12:44:41;101339.69;;;24.67;66.93
70925;BME280;58577;52.410;13.242;2022-07-21T12:47:27;101321.00;;;24.32;66.91
70925;BME280;58577;52.410;13.242;2022-07-21T12:50:15;101311.25;;;23.86;65.71
70925;BME280;58577;52.410;13.242;2022-07-21T12:53:01;101320.22;;;23.61;68.56
70925;BME280;58577;52.410;13.242;2022-07-21T12:55:46;101331.84;;;23.50;69.21
70925;BME280;58577;52.410;13.242;2022-07-21T12:58:32;101338.41;;;23.49;69.43
70925;BME280;58577;52.410;13.242;2022-07-21T13:01:19;101336.56;;;23.29;68.95
70925;BME280;58577;52.410;13.242;2022-07-21T13:04:05;101327.88;;;23.46;71.83
70925;BME280;58577;52.410;13.242;2022-07-21T13:06:51;101317.66;;;23.66;72.15
70925;BME280;58577;52.410;13.242;2022-07-21T13:09:37;101319.66;;;23.84;69.88
70925;BME280;58577;52.410;13.242;2022-07-21T13:12:23;101335.81;;;23.99;68.70
70925;BME280;58577;52.410;13.242;2022-07-21T13:15:10;101335.50;;;23.75;67.73
70925;BME280;58577;52.410;13.242;2022-07-21T13:17:56;101338.06;;;23.70;67.93
70925;BME280;58577;52.410;13.242;2022-07-21T13:20:45;101341.03;;;23.69;68.20
70925;BME280;58577;52.410;13.242;2022-07-21T13:23:31;101351.03;;;23.50;67.84
70925;BME280;58577;52.410;13.242;2022-07-21T13:26:17;101333.72;;;23.56;69.05
70925;BME280;58577;52.410;13.242;2022-07-21T13:29:03;101307.56;;;23.60;68.49
70925;BME280;58577;52.410;13.242;2022-07-21T13:31:51;101277.38;;;23.35;70.07
70925;BME280;58577;52.410;13.242;2022-07-21T13:34:37;101262.28;;;23.19;67.83
70925;BME280;58577;52.410;13.242;2022-07-21T13:37:22;101286.13;;;23.50;67.91
70925;BME280;58577;52.410;13.242;2022-07-21T13:40:08;101286.78;;;23.78;67.78
70925;BME280;58577;52.410;13.242;2022-07-21T13:42:55;101286.72;;;23.91;67.32
70925;BME280;58577;52.410;13.242;2022-07-21T13:45:41;101266.28;;;24.19;66.36
70925;BME280;58577;52.410;13.242;2022-07-21T13:48:27;101273.25;;;24.40;65.18
70925;BME280;58577;52.410;13.242;2022-07-21T13:51:14;101279.69;;;24.89;63.91
70925;BME280;58577;52.410;13.242;2022-07-21T13:54:00;101330.56;;;25.89;58.70
70925;BME280;58577;52.410;13.242;2022-07-21T13:56:47;101323.13;;;26.20;58.18
70925;BME280;58577;52.410;13.242;2022-07-21T13:59:33;101313.41;;;26.05;57.38
70925;BME280;58577;52.410;13.242;2022-07-21T14:02:19;101301.25;;;26.25;56.38
70925;BME280;58577;52.410;13.242;2022-07-21T14:05:05;101284.59;;;25.54;55.96
70925;BME280;58577;52.410;13.242;2022-07-21T14:07:51;101265.28;;;25.30;57.70
70925;BME280;58577;52.410;13.242;2022-07-21T14:10:37;101265.28;;;25.12;57.68
70925;BME280;58577;52.410;13.242;2022-07-21T14:13:23;101255.19;;;25.24;57.96
70925;BME280;58577;52.410;13.242;2022-07-21T14:16:09;101249.41;;;25.14;57.25
70925;BME280;58577;52.410;13.242;2022-07-21T14:18:55;101251.44;;;25.19;56.67
70925;BME280;58577;52.410;13.242;2022-07-21T14:21:40;101263.06;;;25.51;56.64
70925;BME280;58577;52.410;13.242;2022-07-21T14:24:26;101268.19;;;25.47;56.23
70925;BME280;58577;52.410;13.242;2022-07-21T14:27:31;101301.16;;;25.78;54.98
70925;BME280;58577;52.410;13.242;2022-07-21T14:30:18;101288.00;;;25.80;55.07
70925;BME280;58577;52.410;13.242;2022-07-21T14:33:04;101304.03;;;25.83;54.79
70925;BME280;58577;52.410;13.242;2022-07-21T14:35:50;101300.97;;;25.91;53.36
70925;BME280;58577;52.410;13.242;2022-07-21T14:38:36;101292.88;;;25.96;53.64
70925;BME280;58577;52.410;13.242;2022-07-21T14:41:22;101299.00;;;26.69;54.24
70925;BME280;58577;52.410;13.242;2022-07-21T14:44:08;101298.59;;;27.01;52.96
70925;BME280;58577;52.410;13.242;2022-07-21T14:46:54;101287.16;;;27.21;52.93
70925;BME280;58577;52.410;13.242;2022-07-21T14:49:40;101292.28;;;26.29;51.90
70925;BME280;58577;52.410;13.242;2022-07-21T14:52:26;101289.19;;;25.84;54.15
70925;BME280;58577;52.410;13.242;2022-07-21T14:55:12;101288.19;;;25.36;55.18
70925;BME280;58577;52.410;13.242;2022-07-21T14:57:58;101288.47;;;24.79;55.54
70925;BME280;58577;52.410;13.242;2022-07-21T15:00:44;101282.59;;;24.76;56.61
70925;BME280;58577;52.410;13.242;2022-07-21T15:03:30;101283.34;;;24.64;56.81
70925;BME280;58577;52.410;13.242;2022-07-21T15:06:16;101289.31;;;24.61;56.37
70925;BME280;58577;52.410;13.242;2022-07-21T15:09:05;101306.69;;;24.73;56.42
70925;BME280;58577;52.410;13.242;2022-07-21T15:11:51;101307.47;;;24.81;56.57
70925;BME280;58577;52.410;13.242;2022-07-21T15:14:38;101300.19;;;24.68;56.54
70925;BME280;58577;52.410;13.242;2022-07-21T15:17:24;101276.13;;;24.45;57.62
70925;BME280;58577;52.410;13.242;2022-07-21T15:20:10;101273.50;;;24.57;58.21
70925;BME280;58577;52.410;13.242;2022-07-21T15:22:56;101286.66;;;24.48;58.36
70925;BME280;58577;52.410;13.242;2022-07-21T15:25:43;101276.13;;;24.51;58.53
70925;BME280;58577;52.410;13.242;2022-07-21T15:28:41;101283.41;;;25.31;57.42
70925;BME280;58577;52.410;13.242;2022-07-21T15:31:30;101282.47;;;25.98;55.95
70925;BME280;58577;52.410;13.242;2022-07-21T15:34:17;101284.16;;;26.35;53.83
70925;BME280;58577;52.410;13.242;2022-07-21T15:37:03;101278.88;;;26.09;54.37
70925;BME280;58577;52.410;13.242;2022-07-21T15:39:48;101249.00;;;25.59;56.20
70925;BME280;58577;52.410;13.242;2022-07-21T15:42:35;101253.22;;;25.74;56.16
70925;BME280;58577;52.410;13.242;2022-07-21T15:45:22;101263.94;;;26.41;54.65
70925;BME280;58577;52.410;13.242;2022-07-21T15:48:08;101259.88;;;26.08;54.95
70925;BME280;58577;52.410;13.242;2022-07-21T15:50:54;101262.13;;;26.11;55.48
70925;BME280;58577;52.410;13.242;2022-07-21T15:53:40;101260.13;;;26.77;54.83
70925;BME280;58577;52.410;13.242;2022-07-21T15:56:26;101261.84;;;26.95;53.08
70925;BME280;58577;52.410;13.242;2022-07-21T15:59:12;101263.91;;;27.29;53.52
70925;BME280;58577;52.410;13.242;2022-07-21T16:02:17;101255.84;;;27.10;55.31
70925;BME280;58577;52.410;13.242;2022-07-21T16:05:03;101256.28;;;26.66;55.34
70925;BME280;58577;52.410;13.242;2022-07-21T16:07:50;101256.41;;;26.36;55.15
70925;BME280;58577;52.410;13.242;2022-07-21T16:10:37;101244.56;;;26.36;56.43
70925;BME280;58577;52.410;13.242;2022-07-21T16:13:23;101262.41;;;26.45;55.44
70925;BME280;58577;52.410;13.242;2022-07-21T16:16:09;101260.69;;;26.67;54.10
70925;BME280;58577;52.410;13.242;2022-07-21T16:18:55;101254.31;;;26.91;54.18
70925;BME280;58577;52.410;13.242;2022-07-21T16:21:41;101249.44;;;26.81;54.59
70925;BME280;58577;52.410;13.242;2022-07-21T16:24:27;101269.38;;;27.00;53.51
70925;BME280;58577;52.410;13.242;2022-07-21T16:27:13;101261.78;;;26.78;53.54
70925;BME280;58577;52.410;13.242;2022-07-21T16:29:59;101265.53;;;26.60;53.13
70925;BME280;58577;52.410;13.242;2022-07-21T16:32:45;101275.09;;;26.70;53.59
70925;BME280;58577;52.410;13.242;2022-07-21T16:35:32;101274.59;;;26.73;52.92
70925;BME280;58577;52.410;13.242;2022-07-21T16:38:18;101256.25;;;26.78;54.19
70925;BME280;58577;52.410;13.242;2022-07-21T16:41:04;101268.84;;;26.51;54.19
70925;BME280;58577;52.410;13.242;2022-07-21T16:43:50;101268.72;;;26.57;54.64
70925;BME280;58577;52.410;13.242;2022-07-21T16:46:36;101269.47;;;26.64;53.88
70925;BME280;58577;52.410;13.242;2022-07-21T16:49:23;101268.72;;;26.45;54.15
70925;BME280;58577;52.410;13.242;2022-07-21T16:52:09;101272.66;;;26.49;53.55
70925;BME280;58577;52.410;13.242;2022-07-21T16:54:55;101263.69;;;26.42;53.98
70925;BME280;58577;52.410;13.242;2022-07-21T16:57:41;101244.56;;;26.24;55.64
70925;BME280;58577;52.410;13.242;2022-07-21T17:00:28;101246.59;;;26.28;55.58
70925;BME280;58577;52.410;13.242;2022-07-21T17:03:15;101252.09;;;26.28;55.33
70925;BME280;58577;52.410;13.242;2022-07-21T17:06:01;101248.28;;;26.06;56.44
70925;BME280;58577;52.410;13.242;2022-07-21T17:08:47;101229.09;;;25.87;57.35
70925;BME280;58577;52.410;13.242;2022-07-21T17:11:33;101244.16;;;25.85;56.09
70925;BME280;58577;52.410;13.242;2022-07-21T17:14:18;101229.13;;;25.45;57.03